createdAt,value
2019-03-31T00:01:07.522Z,19.80
2019-03-31T00:03:33.464Z,19.80
2019-03-31T00:06:03.578Z,20.50
2019-03-31T00:08:35.886Z,20.20
2019-03-31T00:11:07.546Z,20.23
2019-03-31T00:13:37.529Z,19.97
2019-03-31T00:16:08.337Z,19.83
2019-03-31T00:18:37.881Z,18.63
2019-03-31T00:21:08.327Z,19.23
2019-03-31T00:23:39.074Z,20.57
2019-03-31T00:26:13.816Z,19.00
2019-03-31T00:28:47.485Z,18.73
2019-03-31T00:31:22.452Z,18.90
2019-03-31T00:33:51.684Z,19.17
2019-03-31T00:36:28.343Z,18.27
2019-03-31T00:38:58.499Z,18.67
2019-03-31T00:41:28.486Z,17.13
2019-03-31T00:43:58.008Z,18.20
2019-03-31T00:46:28.516Z,18.77
2019-03-31T00:48:58.532Z,18.33
2019-03-31T00:51:28.088Z,20.03
2019-03-31T00:53:57.370Z,20.43
2019-03-31T00:56:26.832Z,19.17
2019-03-31T00:58:56.388Z,19.43
2019-03-31T01:01:36.719Z,19.30
2019-03-31T01:04:07.929Z,19.73
2019-03-31T01:06:38.950Z,19.60
2019-03-31T01:09:19.818Z,19.60
2019-03-31T01:11:50.790Z,19.00
2019-03-31T01:14:20.511Z,19.27
2019-03-31T01:16:50.716Z,17.47
2019-03-31T01:19:21.975Z,18.87
2019-03-31T01:21:51.157Z,19.50
2019-03-31T01:24:21.023Z,18.53
2019-03-31T01:26:50.528Z,18.40
2019-03-31T01:29:20.626Z,19.53
2019-03-31T01:31:50.926Z,19.37
2019-03-31T01:34:21.529Z,19.33
2019-03-31T01:36:51.575Z,18.20
2019-03-31T01:39:23.462Z,18.10
2019-03-31T01:41:53.088Z,17.60
2019-03-31T01:44:23.988Z,18.07
2019-03-31T01:46:53.587Z,17.87
2019-03-31T01:49:26.084Z,18.17
2019-03-31T01:51:55.514Z,17.70
2019-03-31T01:54:26.331Z,17.37
2019-03-31T01:56:56.307Z,18.60
2019-03-31T01:59:27.696Z,17.23
2019-03-31T02:02:04.364Z,16.97
2019-03-31T02:04:31.568Z,18.60
2019-03-31T02:07:02.467Z,18.33
2019-03-31T02:09:32.121Z,18.13
2019-03-31T02:12:01.759Z,16.50
2019-03-31T02:14:31.048Z,18.17
2019-03-31T02:17:03.843Z,18.97
2019-03-31T02:19:36.407Z,19.40
2019-03-31T02:22:10.902Z,18.03
2019-03-31T02:24:41.256Z,18.30
2019-03-31T02:27:11.982Z,18.67
2019-03-31T02:29:41.913Z,17.57
2019-03-31T02:32:23.359Z,18.43
2019-03-31T02:34:52.822Z,18.97
2019-03-31T02:37:23.486Z,19.90
2019-03-31T02:39:52.881Z,18.67
2019-03-31T02:42:22.595Z,18.77
2019-03-31T02:44:52.153Z,17.80
2019-03-31T02:47:21.874Z,20.27
2019-03-31T02:49:54.925Z,20.10
2019-03-31T02:52:47.710Z,20.53
2019-03-31T02:55:19.135Z,17.63
2019-03-31T02:57:48.522Z,19.33
2019-03-31T03:00:17.813Z,20.63
2019-03-31T03:02:49.841Z,21.10
2019-03-31T03:05:20.745Z,21.23
2019-03-31T03:07:50.647Z,20.47
2019-03-31T03:10:22.217Z,20.43
2019-03-31T03:12:53.092Z,21.07
2019-03-31T03:15:30.103Z,20.13
2019-03-31T03:18:02.672Z,21.23
2019-03-31T03:20:36.910Z,20.80
2019-03-31T03:23:06.356Z,21.00
2019-03-31T03:25:35.651Z,21.50
2019-03-31T03:28:05.398Z,21.77
2019-03-31T03:30:34.773Z,22.17
2019-03-31T03:33:15.804Z,23.27
2019-03-31T03:35:35.986Z,22.47
2019-03-31T03:38:05.417Z,21.07
2019-03-31T03:40:35.087Z,22.50
2019-03-31T03:43:04.235Z,23.07
2019-03-31T03:45:34.002Z,23.23
2019-03-31T03:48:04.008Z,23.37
2019-03-31T03:50:33.629Z,23.37
2019-03-31T03:53:02.988Z,23.57
2019-03-31T03:55:32.404Z,24.23
2019-03-31T03:58:02.190Z,23.03
2019-03-31T04:00:31.522Z,24.00
2019-03-31T04:03:02.724Z,23.30
2019-03-31T04:05:32.513Z,23.97
2019-03-31T04:08:01.668Z,23.97
2019-03-31T04:10:48.245Z,24.57
2019-03-31T04:13:17.338Z,23.73
2019-03-31T04:15:47.044Z,23.53
2019-03-31T04:18:18.269Z,24.20
2019-03-31T04:20:47.583Z,24.77
2019-03-31T04:23:16.991Z,24.33
2019-03-31T04:25:46.488Z,24.90
2019-03-31T04:28:15.606Z,22.97
2019-03-31T04:30:44.850Z,24.87
2019-03-31T04:33:14.080Z,24.10
2019-03-31T04:35:43.771Z,24.90
2019-03-31T04:38:13.334Z,26.23
2019-03-31T04:40:42.672Z,25.77
2019-03-31T04:43:12.270Z,26.13
2019-03-31T04:45:43.222Z,25.57
2019-03-31T04:48:12.915Z,26.30
2019-03-31T04:50:43.120Z,26.90
2019-03-31T04:53:12.576Z,26.57
2019-03-31T04:55:42.429Z,25.93
2019-03-31T04:58:11.903Z,27.00
2019-03-31T05:00:41.219Z,26.63
2019-03-31T05:03:11.852Z,27.70
2019-03-31T05:05:41.264Z,27.00
2019-03-31T05:08:10.553Z,28.33
2019-03-31T05:10:41.949Z,27.17
2019-03-31T05:13:11.781Z,27.53
2019-03-31T05:15:42.356Z,26.70
2019-03-31T05:18:11.914Z,27.23
2019-03-31T05:20:41.161Z,26.63
2019-03-31T05:23:10.357Z,26.23
2019-03-31T05:25:39.699Z,27.37
2019-03-31T05:28:10.398Z,27.57
2019-03-31T05:30:40.188Z,26.03
2019-03-31T05:33:10.030Z,27.07
2019-03-31T05:35:45.498Z,25.10
2019-03-31T05:38:15.939Z,25.93
2019-03-31T05:40:45.288Z,27.80
2019-03-31T05:43:16.115Z,25.20
2019-03-31T05:45:45.597Z,27.33
2019-03-31T05:48:16.038Z,27.93
2019-03-31T05:50:47.049Z,29.50
2019-03-31T05:53:17.661Z,28.13
2019-03-31T05:55:47.675Z,28.87
2019-03-31T05:58:16.719Z,29.03
2019-03-31T06:00:54.836Z,29.30
2019-03-31T06:03:24.866Z,25.97
2019-03-31T06:05:54.242Z,29.00
2019-03-31T06:08:24.604Z,29.00
2019-03-31T06:10:54.128Z,30.53
2019-03-31T06:13:24.130Z,28.70
2019-03-31T06:15:53.405Z,30.33
2019-03-31T06:18:23.425Z,27.33
2019-03-31T06:20:52.709Z,30.57
2019-03-31T06:23:21.843Z,31.33
2019-03-31T06:25:51.246Z,31.00
2019-03-31T06:28:20.453Z,30.60
2019-03-31T06:30:49.702Z,31.97
2019-03-31T06:33:19.252Z,30.20
2019-03-31T06:35:48.455Z,34.70
2019-03-31T06:38:17.612Z,30.97
2019-03-31T06:40:50.990Z,36.77
2019-03-31T06:43:20.025Z,37.37
2019-03-31T06:45:49.119Z,35.07
2019-03-31T06:48:19.343Z,35.37
2019-03-31T06:50:49.146Z,28.60
2019-03-31T06:53:18.285Z,36.30
2019-03-31T06:55:47.739Z,21.10
2019-03-31T06:58:16.974Z,33.37
2019-03-31T07:00:46.024Z,23.57
2019-03-31T07:03:15.679Z,36.20
2019-03-31T07:05:44.798Z,29.70
2019-03-31T07:08:14.597Z,31.20
2019-03-31T07:10:43.644Z,40.33
2019-03-31T07:13:13.415Z,38.03
2019-03-31T07:15:43.109Z,38.80
2019-03-31T07:18:15.826Z,39.67
2019-03-31T07:20:43.983Z,23.93
2019-03-31T07:23:13.111Z,41.83
2019-03-31T07:25:43.525Z,25.93
2019-03-31T07:28:13.019Z,28.43
2019-03-31T07:30:42.252Z,44.83
2019-03-31T07:33:12.642Z,30.17
2019-03-31T07:35:43.123Z,41.77
2019-03-31T07:38:12.182Z,42.77
2019-03-31T07:40:41.300Z,37.37
2019-03-31T07:43:10.517Z,36.93
2019-03-31T07:45:39.885Z,30.70
2019-03-31T07:48:09.611Z,29.13
2019-03-31T07:50:38.901Z,34.43
2019-03-31T07:53:08.086Z,24.20
2019-03-31T07:55:37.397Z,39.30
2019-03-31T07:58:06.454Z,28.17
2019-03-31T08:00:35.655Z,36.73
2019-03-31T08:03:04.802Z,29.07
2019-03-31T08:05:37.461Z,27.30
2019-03-31T08:08:04.781Z,30.17
2019-03-31T08:10:33.987Z,27.70
2019-03-31T08:13:03.110Z,28.53
2019-03-31T08:15:32.211Z,29.20
2019-03-31T08:18:01.265Z,28.83
2019-03-31T08:20:30.849Z,32.50
2019-03-31T08:23:00.013Z,28.67
2019-03-31T08:25:29.329Z,28.47
2019-03-31T08:27:58.976Z,25.37
2019-03-31T08:30:28.084Z,40.80
2019-03-31T08:32:57.408Z,36.17
2019-03-31T08:35:27.005Z,24.80
2019-03-31T08:37:56.453Z,23.53
2019-03-31T08:40:25.482Z,37.63
2019-03-31T08:42:54.641Z,43.37
2019-03-31T08:45:23.725Z,37.73
2019-03-31T08:47:52.780Z,40.23
2019-03-31T08:50:22.421Z,33.60
2019-03-31T08:52:51.503Z,25.73
2019-03-31T08:55:20.606Z,22.07
2019-03-31T08:57:49.737Z,39.10
2019-03-31T09:00:53.297Z,28.93
2019-03-31T09:03:22.495Z,26.17
2019-03-31T09:06:01.494Z,32.10
2019-03-31T09:08:22.664Z,31.93
2019-03-31T09:10:54.318Z,39.17
2019-03-31T09:13:23.735Z,31.50
2019-03-31T09:15:53.691Z,36.73
2019-03-31T09:18:23.396Z,26.73
2019-03-31T09:20:53.298Z,39.63
2019-03-31T09:23:22.560Z,27.43
2019-03-31T09:25:52.184Z,43.90
2019-03-31T09:28:22.064Z,42.17
2019-03-31T09:30:53.089Z,29.13
2019-03-31T09:33:23.062Z,37.47
2019-03-31T09:35:52.640Z,36.60
2019-03-31T09:38:24.677Z,39.43
2019-03-31T09:40:54.067Z,41.17
2019-03-31T09:43:24.666Z,40.43
2019-03-31T09:45:55.690Z,36.07
2019-03-31T09:48:27.279Z,46.27
2019-03-31T09:50:57.072Z,45.13
2019-03-31T09:53:26.416Z,44.20
2019-03-31T09:55:57.815Z,44.63
2019-03-31T09:58:28.716Z,41.97
2019-03-31T10:00:58.792Z,39.40
2019-03-31T10:03:28.222Z,41.70
2019-03-31T10:06:10.444Z,33.60
2019-03-31T10:08:33.489Z,39.40
2019-03-31T10:11:03.856Z,30.30
2019-03-31T10:13:33.567Z,30.60
2019-03-31T10:16:03.218Z,24.80
2019-03-31T10:18:35.306Z,34.73
2019-03-31T10:21:04.810Z,21.73
2019-03-31T10:23:35.582Z,30.83
2019-03-31T10:26:05.237Z,30.23
2019-03-31T10:28:35.035Z,24.13
2019-03-31T10:31:04.498Z,34.60
2019-03-31T10:33:34.513Z,30.07
2019-03-31T10:36:04.784Z,34.13
2019-03-31T10:38:34.345Z,33.77
2019-03-31T10:41:05.344Z,26.63
2019-03-31T10:43:35.110Z,29.53
2019-03-31T10:46:07.334Z,29.03
2019-03-31T10:48:37.336Z,36.77
2019-03-31T10:51:07.041Z,25.40
2019-03-31T10:53:36.421Z,27.63
2019-03-31T10:56:05.772Z,33.43
2019-03-31T10:58:36.281Z,29.57
2019-03-31T11:01:05.828Z,37.00
2019-03-31T11:03:36.291Z,28.43
2019-03-31T11:06:07.646Z,21.50
2019-03-31T11:08:36.851Z,34.67
2019-03-31T11:11:06.249Z,35.13
2019-03-31T11:13:39.470Z,31.40
2019-03-31T11:16:09.500Z,26.53
2019-03-31T11:18:46.315Z,27.43
2019-03-31T11:21:33.195Z,32.67
2019-03-31T11:24:04.278Z,35.87
2019-03-31T11:26:35.203Z,34.57
2019-03-31T11:29:05.813Z,25.33
2019-03-31T11:31:37.504Z,31.00
2019-03-31T11:34:08.387Z,35.20
2019-03-31T11:36:38.331Z,32.30
2019-03-31T11:39:16.032Z,35.17
2019-03-31T11:41:48.922Z,36.57
2019-03-31T11:44:20.635Z,29.30
2019-03-31T11:47:00.958Z,34.93
2019-03-31T11:49:31.255Z,34.03
2019-03-31T11:52:00.680Z,27.80
2019-03-31T11:54:30.054Z,33.93
2019-03-31T11:57:00.745Z,36.87
2019-03-31T11:59:33.837Z,30.93
2019-03-31T12:02:03.415Z,35.60
2019-03-31T12:04:39.772Z,33.57
2019-03-31T12:07:09.011Z,25.53
2019-03-31T12:09:38.148Z,32.37
2019-03-31T12:12:07.373Z,29.50
2019-03-31T12:14:36.445Z,23.37
2019-03-31T12:17:05.633Z,32.63
2019-03-31T12:19:34.699Z,30.50
2019-03-31T12:22:04.647Z,22.33
2019-03-31T12:24:33.831Z,28.07
2019-03-31T12:27:03.353Z,28.43
2019-03-31T12:29:32.603Z,27.00
2019-03-31T12:32:01.945Z,26.87
2019-03-31T12:34:31.396Z,25.97
2019-03-31T12:37:00.490Z,25.17
2019-03-31T12:39:30.035Z,22.13
2019-03-31T12:41:59.245Z,23.90
2019-03-31T12:44:28.798Z,21.10
2019-03-31T12:46:57.936Z,20.93
2019-03-31T12:49:26.985Z,20.30
2019-03-31T12:51:56.250Z,14.70
2019-03-31T12:54:25.401Z,17.27
2019-03-31T12:56:54.701Z,12.43
2019-03-31T12:59:27.061Z,15.10
2019-03-31T13:01:56.134Z,14.67
2019-03-31T13:04:25.681Z,16.87
2019-03-31T13:06:54.982Z,16.33
2019-03-31T13:09:26.231Z,15.70
2019-03-31T13:11:56.759Z,14.90
2019-03-31T13:14:26.729Z,10.00
2019-03-31T13:16:57.070Z,9.90
2019-03-31T13:19:27.871Z,13.43
2019-03-31T13:21:59.374Z,15.53
2019-03-31T13:24:30.448Z,15.13
2019-03-31T13:27:01.371Z,11.93
2019-03-31T13:29:31.294Z,17.37
2019-03-31T13:32:01.159Z,17.37
2019-03-31T13:34:30.442Z,17.23
2019-03-31T13:36:59.999Z,12.70
2019-03-31T13:39:29.437Z,12.90
2019-03-31T13:41:59.146Z,18.23
2019-03-31T13:44:28.580Z,20.17
2019-03-31T13:46:57.850Z,17.87
2019-03-31T13:49:27.070Z,16.33
2019-03-31T13:51:56.430Z,18.50
2019-03-31T13:54:26.125Z,14.77
2019-03-31T13:56:56.142Z,12.27
2019-03-31T13:59:26.212Z,14.03
2019-03-31T14:01:55.699Z,11.33
2019-03-31T14:04:25.248Z,10.00
2019-03-31T14:06:54.599Z,10.53
2019-03-31T14:09:24.430Z,15.27
2019-03-31T14:11:56.860Z,15.30
2019-03-31T14:14:25.980Z,14.63
2019-03-31T14:16:55.440Z,10.40
2019-03-31T14:19:25.059Z,10.40
2019-03-31T14:21:54.227Z,14.77
2019-03-31T14:24:26.793Z,12.53
2019-03-31T14:26:54.562Z,8.93
2019-03-31T14:29:24.300Z,16.20
2019-03-31T14:31:54.133Z,15.40
2019-03-31T14:34:23.528Z,12.47
2019-03-31T14:36:52.889Z,15.37
2019-03-31T14:39:22.232Z,12.43
2019-03-31T14:41:51.332Z,13.50
2019-03-31T14:44:20.715Z,12.30
2019-03-31T14:46:51.426Z,12.60
2019-03-31T14:49:20.861Z,10.03
2019-03-31T14:51:51.531Z,8.37
2019-03-31T14:54:22.912Z,9.00
2019-03-31T14:56:54.124Z,10.23
2019-03-31T14:59:24.359Z,11.10
2019-03-31T15:01:53.868Z,9.87
2019-03-31T15:04:27.682Z,8.00
2019-03-31T15:06:58.798Z,8.57
2019-03-31T15:09:31.196Z,11.10
2019-03-31T15:12:00.880Z,9.73
2019-03-31T15:14:32.896Z,9.17
2019-03-31T15:17:02.378Z,7.30
2019-03-31T15:19:35.642Z,9.57
2019-03-31T15:22:11.054Z,9.13
2019-03-31T15:24:40.531Z,8.20
2019-03-31T15:27:14.067Z,6.27
2019-03-31T15:29:43.511Z,6.30
2019-03-31T15:32:13.855Z,9.50
2019-03-31T15:34:43.265Z,7.87
2019-03-31T15:37:14.886Z,7.77
2019-03-31T15:39:44.584Z,7.03
2019-03-31T15:42:16.083Z,8.47
2019-03-31T15:44:45.972Z,6.07
2019-03-31T15:47:15.321Z,6.83
2019-03-31T15:49:47.654Z,7.40
2019-03-31T15:52:27.257Z,5.33
2019-03-31T15:55:00.377Z,7.37
2019-03-31T15:57:31.237Z,7.30
2019-03-31T16:00:01.865Z,6.57
2019-03-31T16:02:32.392Z,7.73
2019-03-31T16:05:01.966Z,6.00
2019-03-31T16:07:32.608Z,7.27
2019-03-31T16:10:01.564Z,6.80
2019-03-31T16:12:32.169Z,7.90
2019-03-31T16:15:01.823Z,6.17
2019-03-31T16:17:31.461Z,6.20
2019-03-31T16:20:01.902Z,6.63
2019-03-31T16:22:32.193Z,6.87
2019-03-31T16:25:02.668Z,7.97
2019-03-31T16:27:34.520Z,4.80
2019-03-31T16:30:04.897Z,4.80
2019-03-31T16:32:38.861Z,6.67
2019-03-31T16:35:08.919Z,5.97
2019-03-31T16:37:37.947Z,8.23
2019-03-31T16:40:13.353Z,8.87
2019-03-31T16:42:44.920Z,7.83
2019-03-31T16:45:14.046Z,7.07
2019-03-31T16:47:43.375Z,7.77
2019-03-31T16:50:13.827Z,8.13
2019-03-31T16:52:45.344Z,7.87
2019-03-31T16:55:18.316Z,7.77
2019-03-31T16:57:49.103Z,6.27
2019-03-31T17:00:21.258Z,8.53
2019-03-31T17:02:51.891Z,8.07
2019-03-31T17:05:22.632Z,8.77
2019-03-31T17:07:52.226Z,8.10
2019-03-31T17:10:22.619Z,8.77
2019-03-31T17:12:52.056Z,7.77
2019-03-31T17:15:22.402Z,8.67
2019-03-31T17:17:58.138Z,6.97
2019-03-31T17:20:28.001Z,7.97
2019-03-31T17:22:57.190Z,7.83
2019-03-31T17:25:30.693Z,7.90
2019-03-31T17:28:01.709Z,8.20
2019-03-31T17:30:31.825Z,7.03
2019-03-31T17:33:04.562Z,8.07
2019-03-31T17:35:36.389Z,8.43
2019-03-31T17:38:08.531Z,8.93
2019-03-31T17:40:52.976Z,9.10
2019-03-31T17:43:29.283Z,8.73
2019-03-31T17:45:59.212Z,8.73
2019-03-31T17:48:28.669Z,8.80
2019-03-31T17:50:58.082Z,8.67
2019-03-31T17:53:27.945Z,8.93
2019-03-31T17:55:58.807Z,8.83
2019-03-31T17:58:28.127Z,10.00
2019-03-31T18:00:58.004Z,8.97
2019-03-31T18:03:28.152Z,10.50
2019-03-31T18:05:58.195Z,11.50
2019-03-31T18:08:28.509Z,11.83
2019-03-31T18:11:00.034Z,11.50
2019-03-31T18:13:32.156Z,14.00
2019-03-31T18:16:03.465Z,13.93
2019-03-31T18:18:36.037Z,18.77
2019-03-31T18:21:05.959Z,19.00
2019-03-31T18:23:35.500Z,22.90
2019-03-31T18:26:05.380Z,32.27
2019-03-31T18:28:35.706Z,21.30
2019-03-31T18:31:06.142Z,20.93
2019-03-31T18:33:35.694Z,25.60
2019-03-31T18:36:09.078Z,24.63
2019-03-31T18:38:39.159Z,16.57
2019-03-31T18:41:08.967Z,21.03
2019-03-31T18:43:50.230Z,20.33
2019-03-31T18:46:10.855Z,18.23
2019-03-31T18:48:50.650Z,20.53
2019-03-31T18:51:29.289Z,18.20
2019-03-31T18:54:23.430Z,16.43
2019-03-31T18:56:59.184Z,18.13
2019-03-31T18:59:47.716Z,19.37
2019-03-31T19:02:30.020Z,22.10
2019-03-31T19:05:24.427Z,18.43
2019-03-31T19:08:26.496Z,20.17
2019-03-31T19:11:15.021Z,20.10
2019-03-31T19:14:03.565Z,23.47
2019-03-31T19:16:59.733Z,21.00
2019-03-31T19:19:46.967Z,20.13
2019-03-31T19:22:35.970Z,18.57
2019-03-31T19:25:18.661Z,16.90
2019-03-31T19:28:04.104Z,15.27
2019-03-31T19:30:45.153Z,15.07
2019-03-31T19:33:42.808Z,13.17
2019-03-31T19:36:28.945Z,14.57
2019-03-31T19:39:23.697Z,14.47
2019-03-31T19:42:18.157Z,15.00
2019-03-31T19:45:11.497Z,13.40
2019-03-31T19:47:52.488Z,14.00
2019-03-31T19:50:45.786Z,11.83
2019-03-31T19:53:32.569Z,11.37
2019-03-31T19:56:16.168Z,11.03
2019-03-31T19:59:07.602Z,9.60
2019-03-31T20:01:58.881Z,7.40
2019-03-31T20:04:37.736Z,5.07
2019-03-31T20:07:41.196Z,3.87
2019-03-31T20:10:41.560Z,6.00
2019-03-31T20:13:28.858Z,6.40
2019-03-31T20:16:36.136Z,7.57
2019-03-31T20:19:24.316Z,4.17
2019-03-31T20:34:53.138Z,6.53
2019-03-31T20:37:35.869Z,8.13
2019-03-31T20:40:14.615Z,11.13
2019-03-31T20:43:16.350Z,6.30
2019-03-31T20:45:45.418Z,6.10
2019-03-31T20:48:15.396Z,6.10
2019-03-31T20:50:49.369Z,4.67
2019-03-31T20:53:18.733Z,4.23
2019-03-31T20:55:47.906Z,5.00
2019-03-31T20:58:17.359Z,3.90
2019-03-31T21:00:47.647Z,6.00
2019-03-31T21:03:17.767Z,5.10
2019-03-31T21:05:50.155Z,6.20
2019-03-31T21:08:19.069Z,5.40
2019-03-31T21:10:49.130Z,4.17
2019-03-31T21:13:18.290Z,3.50
2019-03-31T21:15:47.658Z,3.33
2019-03-31T21:18:16.952Z,4.20
2019-03-31T21:20:48.492Z,3.27
2019-03-31T21:23:19.631Z,2.17
2019-03-31T21:25:49.348Z,3.10
2019-03-31T21:28:23.611Z,3.07
2019-03-31T21:30:55.716Z,3.37
2019-03-31T21:33:26.071Z,5.13
2019-03-31T21:35:58.125Z,4.17
2019-03-31T21:38:28.256Z,2.57
2019-03-31T21:40:58.508Z,3.10
2019-03-31T21:43:30.511Z,2.97
2019-03-31T21:46:01.857Z,2.77
2019-03-31T21:48:31.943Z,3.10
2019-03-31T21:51:04.839Z,3.87
2019-03-31T21:53:37.767Z,3.77
2019-03-31T21:56:07.252Z,3.17
2019-03-31T21:58:38.550Z,7.77
2019-03-31T22:01:10.795Z,4.90
2019-03-31T22:03:39.906Z,3.47
2019-03-31T22:06:10.756Z,5.17
2019-03-31T22:08:42.091Z,3.87
2019-03-31T22:11:15.444Z,3.30
2019-03-31T22:13:44.997Z,3.50
2019-03-31T22:16:13.986Z,3.10
2019-03-31T22:18:47.171Z,4.83
2019-03-31T22:21:16.856Z,4.07
2019-03-31T22:23:57.375Z,3.00
2019-03-31T22:26:21.836Z,2.30
2019-03-31T22:28:50.959Z,2.77
2019-03-31T22:31:20.535Z,2.50
2019-03-31T22:33:50.221Z,3.30
2019-03-31T22:36:24.887Z,4.00
2019-03-31T22:38:53.992Z,3.00
2019-03-31T22:41:23.021Z,3.23
2019-03-31T22:43:53.235Z,3.90
2019-03-31T22:46:22.382Z,3.30
2019-03-31T22:48:51.463Z,3.63
2019-03-31T22:51:25.003Z,3.37
2019-03-31T22:53:53.864Z,2.97
2019-03-31T22:56:24.838Z,5.53
2019-03-31T22:58:53.897Z,3.53
2019-03-31T23:01:24.623Z,4.80
2019-03-31T23:03:53.906Z,4.20
2019-03-31T23:06:26.068Z,4.03
2019-03-31T23:08:55.633Z,3.40
2019-03-31T23:11:24.757Z,3.60
2019-03-31T23:13:54.515Z,1.90
2019-03-31T23:16:23.862Z,3.60
2019-03-31T23:18:52.761Z,4.17
2019-03-31T23:21:23.856Z,4.10
2019-03-31T23:23:53.036Z,3.80
2019-03-31T23:26:22.666Z,5.47
2019-03-31T23:28:53.505Z,3.93
2019-03-31T23:31:22.332Z,4.10
2019-03-31T23:33:51.342Z,4.57
2019-03-31T23:36:20.332Z,3.70
2019-03-31T23:38:49.282Z,2.87
2019-03-31T23:41:18.106Z,4.53
2019-03-31T23:43:50.228Z,5.67
2019-03-31T23:46:19.474Z,3.20
2019-03-31T23:48:48.769Z,3.00
2019-03-31T23:51:17.746Z,2.73
2019-03-31T23:53:46.803Z,2.83
2019-03-31T23:56:15.601Z,3.20
2019-03-31T23:58:44.995Z,2.97
